Woodhaven, New York
Current Conditions -  °F | °C
As of 12:51 PM on Saturday 25 Oct 2014 (Local Time) from KJFK Reporting Station
Few Clouds Few Clouds  
Wind Chill: 63°   Ceiling: Unl
Heat Index: 63°   Visibility: 10mi
Dew Point: 41°   Wind: 12mph
Humidity: 45%   Direction: 230°SW
Pressure: 29.79"   Gusts: NA
Location:  40.69°N, 73.86°W
Report Text: KJFK 251651Z 23010KT 10SM FEW260 17/05 A2979 RMK AO2 SLP087 T01720050
Loading
Personal Weather Stations






























Interactive Weather Map New forecast layout! Learn more

10-Day Weather Forecast

Advertisements
Track Severe Weather on mobile